KGCN/GCN METAR and TAF weather

Enter ICAO airport designator
Station Type Date Time Source
KGCN METAR 2019/02/20 23:54 UTC NOAA

KGCN 202354Z 22015KT 10SM BKN049 OVC060 M03/M10 A2964 RMK AO2 PK WND 22026/2328 SLP101 60000 T10331100 11028 21056 56018


Station Type Date Time Source
KGCN Decoded METAR 2019/02/20 23:54 UTC NOAA

GRAND CANYON NATL PARK AIRPORT , AZ, United States (KGCN) 35-57N 112-09W 2016M
Feb 20, 2019 - 06:54 PM EST / 2019.02.20 2354 UTC
Wind: from the SW (220 degrees) at 17 MPH (15 KT):0
Visibility: 10 mile(s):0
Sky conditions: overcast
Temperature: 26.1 F (-3.3 C)
Windchill: 14 F (-10 C):1
Dew Point: 14.0 F (-10.0 C)
Relative Humidity: 59%
Pressure (altimeter): 29.64 in. Hg (1003 hPa)
Pressure tendency: 0.05 inches (1.8 hPa) lower than three hours ago
ob: KGCN 202354Z 22015KT 10SM BKN049 OVC060 M03/M10 A2964 RMK AO2 PK WND 22026/2328 SLP101 60000 T10331100 11028 21056 56018
cycle: 0

Station Type Date Time Source
KGCN TAF 2019/02/20 20:12 UTC NOAA

TAF
AMD KGCN 202009Z 2020/2118 21015KT P6SM VCSH FEW040 BKN100
FM210000 21015G25KT P6SM -SN BKN025 OVC040
FM210300 22015G25KT 2SM -SHSN SCT010 BKN015 OVC025
TEMPO 2110/2114 1SM -SN SCT005 OVC010


Example: see airport list